ěÝzenÝ letovÚho provozu ╚eskÚ republiky
Letiste: LKNA Aktualizace: 17.05.2022 23:29:30  UTC
 METAR LKNA 17.05. 23:30 ...
METAR LKNA 172330Z 32006KT CAVOK 11/10 Q1023 RMK BLU=
 TAF LKNA 17.05. 17:00 ...
TAF LKNA 171700Z 1718/1818 36008KT CAVOK      BECMG 1803/1805 06006KT      BECMG 1811/1813 11008KT=